createdAt,value
2018-03-28T00:00:01.093Z,6.65
2018-03-28T00:02:30.581Z,6.69
2018-03-28T00:05:00.441Z,6.73
2018-03-28T00:07:30.388Z,6.74
2018-03-28T00:09:59.876Z,6.75
2018-03-28T00:12:29.377Z,6.78
2018-03-28T00:14:58.888Z,6.81
2018-03-28T00:17:29.010Z,6.83
2018-03-28T00:19:58.531Z,6.83
2018-03-28T00:22:28.047Z,6.79
2018-03-28T00:24:57.545Z,6.80
2018-03-28T00:27:27.043Z,6.75
2018-03-28T00:29:56.551Z,6.74
2018-03-28T00:32:26.061Z,6.67
2018-03-28T00:34:55.597Z,6.72
2018-03-28T00:37:25.166Z,6.74
2018-03-28T00:39:54.659Z,6.76
2018-03-28T00:42:24.170Z,6.74
2018-03-28T00:44:54.316Z,6.76
2018-03-28T00:47:23.823Z,6.78
2018-03-28T00:49:53.331Z,6.76
2018-03-28T00:52:22.821Z,6.82
2018-03-28T00:54:52.330Z,6.82
2018-03-28T00:57:21.830Z,6.83
2018-03-28T00:59:51.327Z,6.80
2018-03-28T01:02:21.087Z,6.73
2018-03-28T01:04:50.579Z,6.78
2018-03-28T01:07:20.071Z,6.86
2018-03-28T01:09:49.572Z,6.83
2018-03-28T01:12:19.281Z,6.83
2018-03-28T01:14:48.778Z,6.89
2018-03-28T01:17:18.289Z,6.90
2018-03-28T01:19:47.818Z,6.96
2018-03-28T01:22:17.387Z,6.96
2018-03-28T01:24:46.898Z,6.98
2018-03-28T01:27:16.420Z,7.02
2018-03-28T01:29:45.941Z,7.04
2018-03-28T01:32:15.310Z,7.05
2018-03-28T01:34:44.817Z,7.00
2018-03-28T01:37:14.303Z,7.07
2018-03-28T01:39:44.517Z,7.09
2018-03-28T01:42:14.488Z,7.08
2018-03-28T01:44:43.985Z,7.08
2018-03-28T01:47:13.487Z,7.10
2018-03-28T01:49:42.978Z,7.15
2018-03-28T01:52:12.285Z,7.10
2018-03-28T01:54:41.601Z,7.17
2018-03-28T01:57:11.091Z,7.16
2018-03-28T01:59:40.597Z,7.16
2018-03-28T02:02:10.102Z,7.17
2018-03-28T02:04:39.640Z,7.12
2018-03-28T02:07:09.143Z,7.11
2018-03-28T02:09:39.029Z,7.12
2018-03-28T02:12:08.511Z,7.13
2018-03-28T02:14:38.016Z,7.12
2018-03-28T02:17:07.521Z,7.11
2018-03-28T02:19:37.395Z,7.17
2018-03-28T02:22:06.894Z,7.19
2018-03-28T02:24:36.381Z,7.21
2018-03-28T02:27:07.603Z,7.22
2018-03-28T02:29:37.102Z,7.24
2018-03-28T02:32:06.671Z,7.27
2018-03-28T02:34:36.176Z,7.31
2018-03-28T02:37:05.377Z,7.32
2018-03-28T02:39:34.645Z,7.24
2018-03-28T02:42:04.184Z,7.26
2018-03-28T02:44:33.664Z,7.28
2018-03-28T02:47:03.159Z,7.30
2018-03-28T02:49:32.983Z,7.33
2018-03-28T02:52:02.466Z,7.38
2018-03-28T02:54:31.767Z,7.39
2018-03-28T02:57:01.268Z,7.43
2018-03-28T02:59:30.770Z,7.45
2018-03-28T03:02:00.261Z,7.43
2018-03-28T03:04:29.758Z,7.45
2018-03-28T03:06:59.644Z,7.49
2018-03-28T03:09:28.935Z,7.47
2018-03-28T03:11:58.445Z,7.45
2018-03-28T03:14:27.961Z,7.48
2018-03-28T03:16:57.535Z,7.51
2018-03-28T03:19:27.061Z,7.52
2018-03-28T03:21:56.561Z,7.55
2018-03-28T03:24:25.737Z,7.54
2018-03-28T03:26:55.224Z,7.53
2018-03-28T03:29:24.769Z,7.56
2018-03-28T03:31:54.343Z,7.55
2018-03-28T03:34:23.889Z,7.54
2018-03-28T03:36:53.163Z,7.59
2018-03-28T03:39:22.843Z,7.58
2018-03-28T03:41:52.739Z,7.58
2018-03-28T03:44:22.225Z,7.56
2018-03-28T03:46:51.759Z,7.58
2018-03-28T03:49:21.661Z,7.57
2018-03-28T03:51:51.177Z,7.60
2018-03-28T03:54:21.070Z,7.64
2018-03-28T03:56:50.563Z,7.64
2018-03-28T03:59:20.048Z,7.67
2018-03-28T04:01:49.646Z,7.65
2018-03-28T04:04:19.147Z,7.67
2018-03-28T04:06:48.640Z,7.72
2018-03-28T04:09:18.359Z,7.70
2018-03-28T04:11:47.933Z,7.72
2018-03-28T04:14:17.528Z,7.72
2018-03-28T04:16:47.268Z,7.71
2018-03-28T04:19:17.151Z,7.74
2018-03-28T04:21:46.635Z,7.74
2018-03-28T04:24:16.157Z,7.76
2018-03-28T04:26:45.682Z,7.79
2018-03-28T04:29:15.573Z,7.77
2018-03-28T04:31:45.085Z,7.76
2018-03-28T04:34:14.575Z,7.75
2018-03-28T04:36:44.067Z,7.74
2018-03-28T04:39:13.609Z,7.70
2018-03-28T04:41:43.137Z,7.72
2018-03-28T04:44:12.654Z,7.67
2018-03-28T04:46:42.157Z,7.67
2018-03-28T04:49:11.665Z,7.62
2018-03-28T04:51:41.759Z,7.69
2018-03-28T04:54:11.694Z,7.71
2018-03-28T04:56:41.602Z,7.72
2018-03-28T04:59:11.521Z,7.68
2018-03-28T05:01:41.428Z,7.71
2018-03-28T05:04:11.357Z,7.73
2018-03-28T05:06:41.433Z,7.70
2018-03-28T05:09:10.927Z,7.68
2018-03-28T05:11:40.428Z,7.68
2018-03-28T05:14:09.929Z,7.66
2018-03-28T05:16:39.487Z,7.70
2018-03-28T05:19:09.399Z,7.70
2018-03-28T05:21:39.317Z,7.72
2018-03-28T05:24:08.637Z,7.75
2018-03-28T05:26:38.127Z,7.74
2018-03-28T05:29:07.780Z,7.78
2018-03-28T05:31:37.298Z,7.80
2018-03-28T05:34:06.624Z,7.78
2018-03-28T05:36:36.149Z,7.80
2018-03-28T05:39:05.852Z,7.78
2018-03-28T05:41:35.789Z,7.79
2018-03-28T05:44:05.324Z,7.81
2018-03-28T05:46:35.019Z,7.82
2018-03-28T05:49:04.321Z,7.79
2018-03-28T05:51:33.807Z,7.80
2018-03-28T05:54:03.303Z,7.84
2018-03-28T05:56:33.183Z,7.85
2018-03-28T05:59:02.685Z,7.88
2018-03-28T06:01:32.194Z,7.88
2018-03-28T06:04:01.686Z,7.82
2018-03-28T06:06:31.363Z,7.87
2018-03-28T06:09:00.881Z,7.86
2018-03-28T06:11:30.359Z,7.80
2018-03-28T06:14:00.271Z,7.84
2018-03-28T06:16:30.169Z,7.85
2018-03-28T06:18:59.659Z,7.85
2018-03-28T06:21:29.163Z,7.84
2018-03-28T06:23:58.647Z,7.88
2018-03-28T06:26:28.147Z,7.89
2018-03-28T06:28:57.639Z,7.93
2018-03-28T06:31:27.124Z,7.93
2018-03-28T06:33:56.651Z,7.98
2018-03-28T06:36:26.139Z,7.95
2018-03-28T06:38:55.639Z,7.92
2018-03-28T06:41:25.527Z,7.95
2018-03-28T06:43:55.038Z,7.91
2018-03-28T06:46:24.561Z,7.97
2018-03-28T06:48:54.443Z,8.03
2018-03-28T06:51:23.949Z,8.09
2018-03-28T06:53:53.443Z,8.09
2018-03-28T06:56:22.796Z,8.10
2018-03-28T06:58:52.334Z,8.16
2018-03-28T07:01:21.823Z,8.18
2018-03-28T07:03:51.307Z,8.26
2018-03-28T07:06:21.223Z,8.21
2018-03-28T07:08:51.139Z,8.20
2018-03-28T07:11:21.027Z,8.18
2018-03-28T07:13:50.511Z,8.21
2018-03-28T07:16:20.028Z,8.24
2018-03-28T07:18:49.527Z,8.28
2018-03-28T07:21:18.788Z,8.27
2018-03-28T07:23:48.310Z,8.27
2018-03-28T07:26:18.758Z,8.33
2018-03-28T07:28:48.241Z,8.40
2018-03-28T07:31:18.134Z,8.43
2018-03-28T07:33:47.651Z,8.52
2018-03-28T07:36:17.164Z,8.52
2018-03-28T07:38:46.672Z,8.50
2018-03-28T07:41:16.175Z,8.53
2018-03-28T07:43:45.787Z,8.50
2018-03-28T07:46:15.487Z,8.46
2018-03-28T07:48:44.979Z,8.55
2018-03-28T07:51:14.476Z,8.51
2018-03-28T07:53:44.389Z,8.53
2018-03-28T07:56:14.006Z,8.52
2018-03-28T07:58:43.536Z,8.48
2018-03-28T08:01:13.014Z,8.56
2018-03-28T08:03:42.940Z,8.55
2018-03-28T08:06:12.432Z,8.61
2018-03-28T08:08:42.336Z,8.53
2018-03-28T08:11:12.224Z,8.50
2018-03-28T08:13:41.760Z,8.49
2018-03-28T08:16:11.646Z,8.52
2018-03-28T08:18:41.142Z,8.50
2018-03-28T08:21:10.680Z,8.54
2018-03-28T08:23:40.638Z,8.48
2018-03-28T08:26:10.159Z,8.54
2018-03-28T08:28:39.646Z,8.57
2018-03-28T08:31:09.210Z,8.57
2018-03-28T08:33:38.692Z,8.63
2018-03-28T08:36:08.202Z,8.70
2018-03-28T08:38:37.704Z,8.80
2018-03-28T08:41:07.188Z,8.87
2018-03-28T08:43:36.684Z,8.91
2018-03-28T08:46:06.174Z,9.08
2018-03-28T08:48:35.676Z,9.20
2018-03-28T08:51:05.188Z,9.25
2018-03-28T08:53:34.721Z,9.34
2018-03-28T08:56:04.270Z,9.34
2018-03-28T08:58:34.229Z,9.29
2018-03-28T09:01:03.724Z,9.42
2018-03-28T09:03:33.220Z,9.44
2018-03-28T09:06:02.741Z,9.53
2018-03-28T09:08:32.440Z,9.56
2018-03-28T09:11:01.925Z,9.60
2018-03-28T09:13:31.884Z,9.62
2018-03-28T09:16:01.369Z,9.66
2018-03-28T09:18:30.850Z,9.68
2018-03-28T09:21:00.751Z,9.73
2018-03-28T09:23:30.311Z,9.84
2018-03-28T09:25:59.834Z,9.95
2018-03-28T09:28:29.527Z,10.01
2018-03-28T09:30:59.016Z,9.88
2018-03-28T09:33:28.504Z,9.89
2018-03-28T09:35:58.570Z,9.97
2018-03-28T09:38:28.230Z,10.03
2018-03-28T09:40:57.774Z,10.14
2018-03-28T09:43:27.287Z,10.29
2018-03-28T09:45:56.786Z,10.30
2018-03-28T09:48:26.300Z,10.35
2018-03-28T09:50:55.790Z,10.40
2018-03-28T09:53:25.300Z,10.28
2018-03-28T09:55:54.813Z,10.42
2018-03-28T09:58:24.315Z,10.37
2018-03-28T10:00:59.519Z,10.39
2018-03-28T10:03:29.250Z,10.52
2018-03-28T10:05:58.991Z,10.64
2018-03-28T10:08:28.496Z,10.67
2018-03-28T10:10:57.986Z,10.70
2018-03-28T10:13:27.514Z,10.83
2018-03-28T10:15:57.012Z,11.00
2018-03-28T10:18:26.510Z,10.95
2018-03-28T10:20:56.012Z,11.10
2018-03-28T10:23:25.269Z,11.27
2018-03-28T10:25:55.234Z,11.42
2018-03-28T10:28:24.737Z,11.74
2018-03-28T10:30:54.504Z,11.96
2018-03-28T10:33:24.422Z,12.08
2018-03-28T10:35:53.323Z,12.15
2018-03-28T10:38:22.930Z,12.17
2018-03-28T10:40:52.412Z,12.09
2018-03-28T10:43:22.301Z,12.00
2018-03-28T10:45:51.804Z,11.93
2018-03-28T10:48:21.338Z,11.93
2018-03-28T10:50:51.496Z,12.08
2018-03-28T10:53:21.018Z,12.30
2018-03-28T10:55:50.562Z,12.48
2018-03-28T10:58:20.136Z,12.72
2018-03-28T11:00:49.824Z,12.52
2018-03-28T11:03:19.151Z,12.37
2018-03-28T11:05:48.678Z,12.25
2018-03-28T11:08:18.186Z,12.20
2018-03-28T11:10:47.692Z,12.07
2018-03-28T11:13:17.212Z,12.04
2018-03-28T11:15:47.102Z,12.04
2018-03-28T11:18:16.360Z,11.99
2018-03-28T11:20:45.866Z,11.95
2018-03-28T11:23:15.372Z,11.96
2018-03-28T11:25:44.912Z,11.92
2018-03-28T11:28:14.426Z,12.04
2018-03-28T11:30:43.958Z,12.11
2018-03-28T11:33:13.872Z,12.14
2018-03-28T11:35:43.772Z,12.23
2018-03-28T11:38:13.285Z,12.40
2018-03-28T11:40:43.188Z,12.25
2018-03-28T11:43:12.708Z,12.25
2018-03-28T11:45:42.207Z,12.39
2018-03-28T11:48:11.720Z,12.34
2018-03-28T11:50:41.632Z,12.39
2018-03-28T11:53:11.184Z,12.45
2018-03-28T11:55:40.698Z,12.42
2018-03-28T11:58:10.204Z,12.32
2018-03-28T12:00:39.746Z,12.26
2018-03-28T12:03:10.205Z,12.21
2018-03-28T12:05:40.120Z,12.18
2018-03-28T12:08:10.026Z,12.15
2018-03-28T12:10:39.926Z,12.21
2018-03-28T12:13:09.455Z,12.02
2018-03-28T12:15:39.348Z,12.02
2018-03-28T12:18:09.048Z,12.04
2018-03-28T12:20:38.547Z,12.04
2018-03-28T12:23:08.062Z,12.14
2018-03-28T12:25:37.652Z,12.21
2018-03-28T12:28:07.138Z,12.33
2018-03-28T12:30:36.692Z,12.38
2018-03-28T12:33:06.234Z,12.52
2018-03-28T12:35:35.932Z,12.53
2018-03-28T12:38:05.424Z,12.69
2018-03-28T12:40:35.386Z,12.59
2018-03-28T12:43:04.900Z,12.53
2018-03-28T12:45:34.468Z,12.62
2018-03-28T12:48:03.972Z,12.63
2018-03-28T12:50:33.462Z,12.57
2018-03-28T12:53:03.392Z,12.44
2018-03-28T12:55:32.875Z,12.34
2018-03-28T12:58:02.621Z,12.34
2018-03-28T13:00:32.139Z,12.44
2018-03-28T13:03:01.638Z,12.45
2018-03-28T13:05:31.204Z,12.41
2018-03-28T13:08:00.737Z,12.25
2018-03-28T13:10:30.811Z,12.21
2018-03-28T13:13:00.305Z,12.19
2018-03-28T13:15:29.806Z,12.21
2018-03-28T13:17:59.326Z,12.17
2018-03-28T13:20:28.830Z,12.03
2018-03-28T13:22:58.779Z,12.00
2018-03-28T13:25:28.332Z,11.87
2018-03-28T13:27:58.014Z,11.78
2018-03-28T13:30:27.515Z,11.70
2018-03-28T13:32:57.026Z,11.64
2018-03-28T13:35:26.523Z,11.70
2018-03-28T13:37:55.698Z,11.70
2018-03-28T13:40:25.595Z,11.64
2018-03-28T13:42:55.308Z,11.57
2018-03-28T13:45:24.804Z,11.46
2018-03-28T13:47:54.302Z,11.51
2018-03-28T13:50:23.610Z,11.40
2018-03-28T13:52:53.095Z,11.37
2018-03-28T13:55:22.607Z,11.43
2018-03-28T13:57:52.110Z,11.42
2018-03-28T14:00:21.601Z,11.42
2018-03-28T14:02:51.103Z,11.48
2018-03-28T14:05:20.316Z,11.40
2018-03-28T14:07:49.816Z,11.39
2018-03-28T14:10:19.318Z,11.35
2018-03-28T14:12:48.795Z,11.41
2018-03-28T14:15:18.709Z,11.27
2018-03-28T14:17:48.805Z,11.24
2018-03-28T14:20:18.344Z,11.21
2018-03-28T14:22:47.846Z,11.17
2018-03-28T14:25:17.777Z,11.23
2018-03-28T14:27:47.835Z,11.25
2018-03-28T14:30:17.379Z,11.34
2018-03-28T14:32:47.264Z,11.32
2018-03-28T14:35:16.759Z,11.40
2018-03-28T14:37:46.251Z,11.34
2018-03-28T14:40:16.569Z,11.33
2018-03-28T14:42:54.590Z,11.34
2018-03-28T14:45:15.871Z,11.33
2018-03-28T14:47:46.499Z,11.29
2018-03-28T14:50:16.004Z,11.37
2018-03-28T14:52:45.770Z,11.30
2018-03-28T14:55:15.274Z,11.38
2018-03-28T14:57:44.891Z,11.35
2018-03-28T15:00:14.391Z,11.42
2018-03-28T15:02:44.154Z,11.42
2018-03-28T15:05:14.261Z,11.53
2018-03-28T15:07:44.043Z,11.57
2018-03-28T15:10:13.697Z,11.58
2018-03-28T15:12:43.200Z,11.61
2018-03-28T15:15:12.705Z,11.62
2018-03-28T15:17:42.201Z,11.58
2018-03-28T15:20:11.733Z,11.65
2018-03-28T15:22:41.242Z,11.67
2018-03-28T15:25:10.778Z,11.75
2018-03-28T15:27:40.527Z,11.76
2018-03-28T15:30:10.015Z,11.78
2018-03-28T15:32:39.971Z,11.79
2018-03-28T15:35:09.683Z,11.68
2018-03-28T15:37:39.356Z,11.65
2018-03-28T15:40:09.124Z,11.51
2018-03-28T15:42:39.242Z,11.53
2018-03-28T15:45:08.737Z,11.48
2018-03-28T15:47:39.147Z,11.43
2018-03-28T15:50:08.651Z,11.49
2018-03-28T15:52:38.207Z,11.52
2018-03-28T15:55:07.768Z,11.49
2018-03-28T15:57:37.475Z,11.50
2018-03-28T16:00:06.408Z,11.54
2018-03-28T16:02:36.339Z,11.51
2018-03-28T16:05:05.632Z,11.37
2018-03-28T16:07:35.154Z,11.37
2018-03-28T16:10:04.866Z,11.40
2018-03-28T16:12:35.317Z,11.39
2018-03-28T16:15:05.092Z,11.32
2018-03-28T16:17:35.783Z,11.30
2018-03-28T16:20:04.461Z,11.28
2018-03-28T16:22:34.033Z,11.26
2018-03-28T16:25:03.597Z,11.20
2018-03-28T16:27:33.163Z,11.24
2018-03-28T16:30:02.729Z,11.26
2018-03-28T16:32:32.333Z,11.27
2018-03-28T16:35:01.921Z,11.24
2018-03-28T16:37:31.889Z,11.18
2018-03-28T16:40:01.420Z,11.21
2018-03-28T16:42:30.870Z,11.25
2018-03-28T16:45:00.739Z,11.16
2018-03-28T16:47:30.741Z,11.12
2018-03-28T16:50:01.609Z,11.08
2018-03-28T16:52:32.017Z,11.05
2018-03-28T16:55:01.553Z,11.03
2018-03-28T16:57:31.119Z,11.01
2018-03-28T17:00:01.967Z,11.03
2018-03-28T17:02:32.865Z,11.01
2018-03-28T17:05:02.387Z,11.03
2018-03-28T17:07:32.300Z,10.97
2018-03-28T17:10:02.211Z,10.96
2018-03-28T17:12:31.859Z,10.95
2018-03-28T17:15:01.351Z,10.94
2018-03-28T17:17:30.534Z,10.90
2018-03-28T17:20:00.421Z,10.93
2018-03-28T17:22:30.149Z,10.95
2018-03-28T17:25:00.051Z,10.88
2018-03-28T17:27:30.003Z,10.81
2018-03-28T17:29:59.490Z,10.85
2018-03-28T17:32:29.395Z,10.82
2018-03-28T17:34:59.135Z,10.78
2018-03-28T17:37:28.675Z,10.80
2018-03-28T17:39:59.761Z,10.77
2018-03-28T17:42:29.663Z,10.75
2018-03-28T17:44:59.470Z,10.72
2018-03-28T17:47:28.955Z,10.73
2018-03-28T17:49:58.455Z,10.66
2018-03-28T17:52:27.971Z,10.69
2018-03-28T17:54:57.489Z,10.65
2018-03-28T17:57:27.242Z,10.63
2018-03-28T17:59:56.877Z,10.67
2018-03-28T18:02:26.399Z,10.68
2018-03-28T18:04:55.955Z,10.71
2018-03-28T18:07:25.845Z,10.70
2018-03-28T18:09:55.343Z,10.71
2018-03-28T18:12:24.858Z,10.67
2018-03-28T18:14:54.350Z,10.65
2018-03-28T18:17:23.857Z,10.61
2018-03-28T18:19:53.385Z,10.58
2018-03-28T18:22:23.484Z,10.56
2018-03-28T18:24:53.040Z,10.49
2018-03-28T18:27:22.543Z,10.51
2018-03-28T18:29:52.046Z,10.54
2018-03-28T18:32:21.565Z,10.47
2018-03-28T18:34:51.075Z,10.45
2018-03-28T18:37:20.579Z,10.47
2018-03-28T18:39:50.064Z,10.45
2018-03-28T18:42:19.549Z,10.47
2018-03-28T18:44:49.456Z,10.43
2018-03-28T18:47:18.951Z,10.35
2018-03-28T18:49:48.450Z,10.37
2018-03-28T18:52:17.948Z,10.32
2018-03-28T18:54:47.481Z,10.31
2018-03-28T18:57:16.772Z,10.33
2018-03-28T18:59:46.388Z,10.35
2018-03-28T19:02:15.894Z,10.39
2018-03-28T19:04:45.807Z,10.35
2018-03-28T19:07:15.342Z,10.33
2018-03-28T19:09:45.263Z,10.32
2018-03-28T19:12:15.415Z,10.32
2018-03-28T19:14:45.290Z,10.31
2018-03-28T19:17:14.801Z,10.32
2018-03-28T19:19:44.780Z,10.27
2018-03-28T19:22:15.211Z,10.28
2018-03-28T19:24:44.785Z,10.27
2018-03-28T19:27:14.298Z,10.22
2018-03-28T19:29:44.580Z,10.21
2018-03-28T19:32:14.255Z,10.17
2018-03-28T19:34:43.476Z,10.15
2018-03-28T19:37:13.439Z,10.12
2018-03-28T19:39:42.995Z,10.20
2018-03-28T19:42:12.895Z,10.07
2018-03-28T19:44:42.388Z,9.94
2018-03-28T19:47:11.890Z,9.82
2018-03-28T19:49:41.401Z,9.78
2018-03-28T19:52:10.902Z,9.75
2018-03-28T19:54:40.406Z,9.68
2018-03-28T19:57:09.908Z,9.69
2018-03-28T19:59:39.438Z,9.69
2018-03-28T20:02:09.173Z,9.68
2018-03-28T20:04:39.407Z,9.67
2018-03-28T20:07:09.201Z,9.60
2018-03-28T20:09:39.091Z,9.55
2018-03-28T20:12:08.588Z,9.49
2018-03-28T20:14:38.098Z,9.50
2018-03-28T20:17:07.849Z,9.38
2018-03-28T20:19:37.346Z,9.34
2018-03-28T20:22:08.132Z,9.35
2018-03-28T20:24:37.646Z,9.29
2018-03-28T20:27:07.340Z,9.23
2018-03-28T20:29:36.840Z,9.21
2018-03-28T20:32:06.388Z,9.18
2018-03-28T20:34:35.882Z,9.13
2018-03-28T20:37:05.389Z,9.09
2018-03-28T20:39:34.885Z,9.10
2018-03-28T20:42:04.399Z,9.08
2018-03-28T20:44:34.802Z,9.07
2018-03-28T20:47:04.303Z,9.01
2018-03-28T20:49:33.977Z,8.97
2018-03-28T20:52:04.149Z,8.93
2018-03-28T20:54:33.821Z,8.87
2018-03-28T20:57:04.188Z,8.87
2018-03-28T20:59:33.690Z,8.82
2018-03-28T21:02:03.198Z,8.74
2018-03-28T21:04:32.656Z,8.75
2018-03-28T21:07:02.182Z,8.74
2018-03-28T21:09:31.663Z,8.70
2018-03-28T21:12:01.538Z,8.68
2018-03-28T21:14:31.051Z,8.74
2018-03-28T21:17:00.543Z,8.74
2018-03-28T21:19:30.072Z,8.70
2018-03-28T21:21:59.736Z,8.69
2018-03-28T21:24:29.243Z,8.72
2018-03-28T21:26:58.738Z,8.75
2018-03-28T21:29:28.430Z,8.77
2018-03-28T21:31:57.933Z,8.79
2018-03-28T21:34:27.453Z,8.78
2018-03-28T21:36:56.978Z,8.81
2018-03-28T21:39:26.458Z,8.86
2018-03-28T21:41:55.976Z,8.85
2018-03-28T21:44:25.479Z,8.82
2018-03-28T21:46:54.960Z,8.85
2018-03-28T21:49:24.891Z,8.83
2018-03-28T21:51:54.376Z,8.85
2018-03-28T21:54:24.258Z,8.86
2018-03-28T21:56:53.742Z,8.89
2018-03-28T21:59:23.266Z,8.88
2018-03-28T22:01:52.794Z,8.89
2018-03-28T22:04:22.268Z,8.88
2018-03-28T22:06:51.765Z,8.85
2018-03-28T22:09:21.293Z,8.87
2018-03-28T22:11:50.778Z,8.91
2018-03-28T22:14:20.310Z,8.93
2018-03-28T22:16:49.846Z,8.90
2018-03-28T22:19:20.536Z,8.93
2018-03-28T22:21:50.173Z,8.92
2018-03-28T22:24:19.834Z,8.88
2018-03-28T22:26:49.106Z,8.91
2018-03-28T22:29:18.646Z,8.91
2018-03-28T22:31:48.221Z,8.89
2018-03-28T22:34:17.750Z,8.88
2018-03-28T22:36:47.231Z,8.96
2018-03-28T22:39:17.275Z,8.92
2018-03-28T22:41:46.793Z,8.93
2018-03-28T22:44:16.308Z,8.93
2018-03-28T22:53:57.723Z,8.84
2018-03-28T22:56:27.236Z,8.82
2018-03-28T22:58:56.728Z,8.76
2018-03-28T23:01:26.259Z,8.75
2018-03-28T23:03:55.833Z,8.73
2018-03-28T23:06:25.320Z,8.63
2018-03-28T23:08:54.877Z,8.64
2018-03-28T23:11:24.453Z,8.61
2018-03-28T23:13:53.948Z,8.42
2018-03-28T23:16:23.446Z,8.43
2018-03-28T23:22:38.705Z,8.26
2018-03-28T23:25:07.892Z,8.21
2018-03-28T23:27:37.387Z,8.20
2018-03-28T23:30:06.566Z,8.16
2018-03-28T23:32:36.055Z,8.07
2018-03-28T23:35:05.557Z,7.99
2018-03-28T23:37:35.430Z,7.97
2018-03-28T23:40:04.596Z,7.89
2018-03-28T23:42:33.809Z,7.88
2018-03-28T23:45:03.308Z,7.85
2018-03-28T23:47:32.916Z,7.77
2018-03-28T23:50:02.398Z,7.67
2018-03-28T23:52:32.090Z,7.68
2018-03-28T23:55:01.981Z,7.67
2018-03-28T23:57:31.464Z,7.63
